Terminal Aerodrome Forecast
Issued by NWS

Home | Current Version | Previous Version | Text Only | Print | Product List | Glossary On
Versions: 1 2 3 4 5 6 7 8 9 10 11 12 13 14 15 16 17 18 19 20 21 22 23 24 25 26 27 28 29 30 31 32 33 34 35 36 37 38 39
596
FTUS46 KOTX 132339
TAFSFF
TAF
KSFF 132339Z 1400/1424 22010KT P6SM FEW040 OVC100
     FM140300 21006KT P6SM -RA OVC050
     FM140430 21006KT 6SM -RA BKN035
     FM140600 22007KT P6SM VCSH OVC025
     FM141000 23004KT P6SM OVC016
     FM141700 23006KT P6SM -RA OVC018=

USA.gov is the U.S. government's official web portal to all federal, state and local government web resources and services.